Time;durP1;ratioP1;P1;durP2;ratioP2;P2;SDS_P1;SDS_P2;PMS_P1;PMS_P2;Temp;Humidity;BMP_temperature;BMP_pressure;BME280_temperature;BME280_humidity;BME280_pressure;Samples;Min_cycle;Max_cycle;Signal;HPM_P1;HPM_P2
2023/11/10 00:01:06;;;;;;;1.37;1.27;;;5.50;99.90;;;;;;1847747;76;25226;-89
2023/11/10 00:03:54;;;;;;;1.30;1.20;;;5.50;99.90;;;;;;1887384;75;25234;-89
2023/11/10 00:06:43;;;;;;;2.83;1.30;;;5.50;99.90;;;;;;1893948;75;25234;-90
2023/11/10 00:09:32;;;;;;;3.30;1.33;;;5.50;99.90;;;;;;1885159;75;25232;-89
2023/11/10 00:15:15;;;;;;;2.00;1.03;;;5.40;99.90;;;;;;1964140;72;26965;-87
2023/11/10 00:18:03;;;;;;;1.10;1.00;;;5.40;99.90;;;;;;1929173;73;25597;-88
2023/11/10 00:20:52;;;;;;;1.30;1.20;;;5.40;99.90;;;;;;1935250;73;25294;-89
2023/11/10 00:23:41;;;;;;;1.50;1.00;;;5.50;99.90;;;;;;1940097;72;25275;-89
2023/11/10 00:26:33;;;;;;;1.20;1.10;;;5.40;99.90;;;;;;1924708;72;25188;-89
2023/11/10 00:29:20;;;;;;;1.20;1.10;;;5.40;99.90;;;;;;1936685;73;25289;-89
2023/11/10 00:32:09;;;;;;;1.27;1.17;;;5.40;99.90;;;;;;1946367;73;25165;-89
2023/11/10 00:37:51;;;;;;;1.70;0.90;;;5.30;99.90;;;;;;1942797;72;27368;-90
2023/11/10 00:44:00;;;;;;;1.33;1.27;;;5.20;99.90;;;;;;1965927;71;27120;-88
2023/11/10 00:49:29;;;;;;;1.10;1.10;;;5.20;99.90;;;;;;1941434;72;27035;-87
2023/11/10 00:52:19;;;;;;;3.40;1.20;;;5.20;99.90;;;;;;1905901;73;25612;-87
2023/11/10 00:55:10;;;;;;;2.13;1.10;;;5.10;99.90;;;;;;1886825;73;25762;-87
2023/11/10 01:00:51;;;;;;;1.17;1.07;;;5.10;99.90;;;;;;1979037;71;27149;-89
2023/11/10 01:03:40;;;;;;;1.07;0.97;;;5.10;99.90;;;;;;1923123;73;25236;-89
2023/11/10 01:06:29;;;;;;;1.00;1.00;;;5.10;99.90;;;;;;1924344;72;25313;-89
2023/11/10 01:09:18;;;;;;;0.80;0.80;;;5.10;99.90;;;;;;1921867;72;25715;-89
2023/11/10 01:12:09;;;;;;;1.00;1.00;;;5.10;99.90;;;;;;1942561;72;25673;-89
2023/11/10 01:14:57;;;;;;;1.30;1.00;;;5.00;99.90;;;;;;1943300;72;25283;-89
2023/11/10 01:17:46;;;;;;;2.70;1.27;;;5.10;99.90;;;;;;1926334;73;25181;-89
2023/11/10 01:23:14;;;;;;;1.50;1.30;;;5.10;99.90;;;;;;1943632;72;27024;-87
2023/11/10 01:26:03;;;;;;;1.40;1.30;;;5.00;99.90;;;;;;1903344;75;25713;-87
2023/11/10 01:28:52;;;;;;;0.90;0.90;;;5.00;99.90;;;;;;1863433;76;25248;-89
2023/11/10 01:31:41;;;;;;;2.23;1.30;;;5.00;99.90;;;;;;1824023;77;25316;-89
2023/11/10 01:34:30;;;;;;;1.80;1.10;;;5.00;99.90;;;;;;1939225;73;25306;-89
2023/11/10 01:37:19;;;;;;;1.60;1.20;;;5.00;99.90;;;;;;1906899;75;25755;-88
2023/11/10 01:40:10;;;;;;;1.27;1.23;;;5.10;99.90;;;;;;1876010;75;25194;-87
2023/11/10 01:42:59;;;;;;;1.20;1.20;;;5.10;99.90;;;;;;1807355;78;25784;-88
2023/11/10 01:45:48;;;;;;;1.67;1.57;;;5.10;99.90;;;;;;1879864;75;25341;-88
2023/11/10 01:48:36;;;;;;;1.93;1.40;;;5.10;99.90;;;;;;1844878;76;25272;-88
2023/11/10 01:51:29;;;;;;;1.50;1.40;;;5.10;99.90;;;;;;1811315;77;25278;-87
2023/11/10 01:56:57;;;;;;;2.87;1.30;;;5.00;99.90;;;;;;1939917;72;27570;-89
2023/11/10 02:02:42;;;;;;;4.80;1.30;;;4.80;99.90;;;;;;1961828;72;27051;-87
2023/11/10 02:08:15;;;;;;;1.10;1.10;;;4.70;99.90;;;;;;1932673;72;27074;-87
2023/11/10 02:11:04;;;;;;;1.00;1.00;;;4.70;99.90;;;;;;1885453;75;26773;-88
2023/11/10 02:13:59;;;;;;;1.50;1.20;;;4.60;99.90;;;;;;1893558;73;25217;-89
2023/11/10 02:16:48;;;;;;;4.63;1.07;;;4.50;99.90;;;;;;1886967;75;25721;-88
2023/11/10 02:19:37;;;;;;;1.13;1.10;;;4.50;99.90;;;;;;1893411;73;25158;-89
2023/11/10 02:22:26;;;;;;;11.63;1.70;;;4.40;99.90;;;;;;1890733;75;25222;-88
2023/11/10 02:25:15;;;;;;;1.87;1.30;;;4.30;99.90;;;;;;1906301;75;25242;-88
2023/11/10 02:28:05;;;;;;;1.60;1.20;;;4.40;99.90;;;;;;1888374;75;25804;-88
2023/11/10 02:30:53;;;;;;;1.40;1.30;;;4.40;99.90;;;;;;1883350;75;25723;-88
2023/11/10 02:33:42;;;;;;;1.47;1.37;;;4.40;99.90;;;;;;1897341;75;25277;-89
2023/11/10 02:36:30;;;;;;;1.70;1.17;;;4.30;99.90;;;;;;1888599;73;25207;-88
2023/11/10 02:39:20;;;;;;;2.87;1.37;;;4.30;99.90;;;;;;1896785;75;25384;-88
2023/11/10 02:55:12;;;;;;;1.00;0.97;;;4.20;99.90;;;;;;1880751;75;27177;-89
2023/11/10 03:01:25;;;;;;;0.90;0.90;;;4.20;99.90;;;;;;1995201;71;27105;-89
2023/11/10 03:04:14;;;;;;;1.80;1.10;;;4.30;99.90;;;;;;1968880;72;25693;-87
2023/11/10 03:07:02;;;;;;;0.87;0.87;;;4.30;99.90;;;;;;2033854;69;25136;-89
2023/11/10 03:09:51;;;;;;;0.87;0.87;;;4.20;99.90;;;;;;2049342;69;25275;-89
2023/11/10 03:15:32;;;;;;;0.70;0.70;;;4.10;99.90;;;;;;1959842;72;26977;-89
2023/11/10 03:18:21;;;;;;;0.67;0.67;;;4.00;99.90;;;;;;1931176;73;25460;-89
2023/11/10 03:21:11;;;;;;;3.47;0.90;;;4.10;99.90;;;;;;1916381;73;25764;-89
2023/11/10 03:23:59;;;;;;;0.67;0.67;;;4.10;99.90;;;;;;1931413;73;25229;-89
2023/11/10 03:26:48;;;;;;;0.63;0.63;;;4.10;99.90;;;;;;1916858;73;25230;-89
2023/11/10 03:29:37;;;;;;;3.63;0.90;;;4.20;99.90;;;;;;1937336;73;25231;-89
2023/11/10 03:32:26;;;;;;;0.77;0.70;;;4.20;99.90;;;;;;1920403;73;25724;-89
2023/11/10 03:38:00;;;;;;;0.73;0.73;;;4.20;99.90;;;;;;1944105;72;27032;-87
2023/11/10 03:40:49;;;;;;;0.70;0.70;;;4.20;99.90;;;;;;1889613;75;25293;-89
2023/11/10 03:43:37;;;;;;;0.57;0.53;;;4.20;99.90;;;;;;1920104;73;25324;-89
2023/11/10 03:46:26;;;;;;;0.60;0.60;;;4.20;99.90;;;;;;1916164;73;25691;-89
2023/11/10 03:49:15;;;;;;;0.70;0.70;;;4.20;99.90;;;;;;1918242;73;25232;-89
2023/11/10 03:52:06;;;;;;;0.50;0.50;;;4.10;99.90;;;;;;1913879;73;25639;-87
2023/11/10 03:54:54;;;;;;;0.83;0.67;;;4.10;99.90;;;;;;1914021;73;25252;-87
2023/11/10 03:57:45;;;;;;;0.60;0.60;;;4.10;99.90;;;;;;1931438;73;25294;-89
2023/11/10 04:00:32;;;;;;;1.13;0.70;;;4.10;99.90;;;;;;1920582;73;25177;-89
2023/11/10 04:03:22;;;;;;;0.80;0.80;;;4.10;99.90;;;;;;1922213;73;25789;-89
2023/11/10 04:06:10;;;;;;;0.70;0.70;;;4.10;99.90;;;;;;1919745;73;25295;-89
2023/11/10 04:08:59;;;;;;;1.00;0.80;;;4.00;99.90;;;;;;1924885;73;25273;-88
2023/11/10 04:11:47;;;;;;;3.80;0.60;;;4.10;99.90;;;;;;1915357;73;25690;-88
2023/11/10 04:14:40;;;;;;;0.70;0.70;;;4.10;99.90;;;;;;1929873;73;25294;-88
2023/11/10 04:20:13;;;;;;;0.57;0.57;;;4.10;99.90;;;;;;1965801;71;27030;-87
2023/11/10 04:23:02;;;;;;;0.50;0.50;;;4.10;99.90;;;;;;1926612;72;25698;-89
2023/11/10 04:25:51;;;;;;;0.70;0.70;;;4.20;99.90;;;;;;1959231;72;25167;-89
2023/11/10 04:28:41;;;;;;;0.70;0.70;;;4.20;99.90;;;;;;1942398;73;25709;-89
2023/11/10 04:31:31;;;;;;;0.50;0.50;;;4.20;99.90;;;;;;1921452;72;25264;-89
2023/11/10 04:34:20;;;;;;;0.60;0.60;;;4.10;99.90;;;;;;1900383;72;25253;-89
2023/11/10 04:37:09;;;;;;;0.80;0.80;;;4.00;99.90;;;;;;1923843;72;25239;-87
2023/11/10 04:39:59;;;;;;;1.40;1.20;;;4.00;99.90;;;;;;1935474;72;25258;-89
2023/11/10 04:45:28;;;;;;;1.27;1.20;;;3.90;99.90;;;;;;1944647;72;27068;-87
2023/11/10 04:48:17;;;;;;;1.00;1.00;;;3.90;99.90;;;;;;1925357;73;25169;-89
2023/11/10 04:51:06;;;;;;;1.33;1.23;;;3.80;99.90;;;;;;1920477;73;25626;-89
2023/11/10 04:53:55;;;;;;;1.10;1.10;;;3.80;99.90;;;;;;1927845;73;25755;-90
2023/11/10 04:56:51;;;;;;;1.40;1.13;;;3.80;99.90;;;;;;1917099;73;25152;-87
2023/11/10 04:59:40;;;;;;;1.20;1.10;;;3.70;99.90;;;;;;1865834;76;25289;-87
2023/11/10 05:02:30;;;;;;;1.23;1.20;;;3.80;99.90;;;;;;1853902;76;25352;-87
2023/11/10 05:09:06;;;;;;;1.50;1.40;;;3.60;99.90;;;;;;2023703;69;27031;-87
2023/11/10 05:14:46;;;;;;;1.80;1.70;;;3.60;99.90;;;;;;1953974;72;27490;-89
2023/11/10 05:17:39;;;;;;;1.63;1.53;;;3.50;99.90;;;;;;1929306;73;25214;-89
2023/11/10 05:23:05;;;;;;;1.93;1.83;;;3.50;99.90;;;;;;1934392;72;26966;-87
2023/11/10 05:25:54;;;;;;;1.87;1.77;;;3.40;99.90;;;;;;1858397;76;25222;-89
2023/11/10 05:28:42;;;;;;;1.83;1.73;;;3.40;99.90;;;;;;1790950;78;25215;-89
2023/11/10 05:31:32;;;;;;;2.20;2.10;;;3.40;99.90;;;;;;1900763;75;25365;-89
2023/11/10 05:34:22;;;;;;;6.83;1.80;;;3.30;99.90;;;;;;1861911;76;25287;-89
2023/11/10 05:37:11;;;;;;;2.10;1.90;;;3.30;99.90;;;;;;1825264;77;25704;-92
2023/11/10 05:40:01;;;;;;;5.43;2.00;;;3.30;99.90;;;;;;1867454;76;25288;-88
2023/11/10 05:42:51;;;;;;;2.20;2.00;;;3.30;99.90;;;;;;1837182;77;25211;-88
2023/11/10 05:45:40;;;;;;;2.47;2.00;;;3.20;99.90;;;;;;1911144;75;25277;-88
2023/11/10 05:51:14;;;;;;;2.40;2.00;;;3.20;99.90;;;;;;1989157;71;27057;-87
2023/11/10 05:54:03;;;;;;;3.53;2.50;;;3.20;99.90;;;;;;1927354;72;25258;-88
2023/11/10 05:56:53;;;;;;;2.27;2.00;;;3.30;99.90;;;;;;1950940;72;25814;-88
2023/11/10 05:59:45;;;;;;;2.13;1.93;;;3.30;99.90;;;;;;1936686;72;25300;-89
2023/11/10 06:02:47;;;;;;;2.87;2.00;;;3.30;99.90;;;;;;1939976;72;25250;-89
2023/11/10 06:08:20;;;;;;;2.80;2.23;;;3.20;99.90;;;;;;1935209;72;26961;-87
2023/11/10 06:11:09;;;;;;;2.20;2.00;;;3.20;99.90;;;;;;1907676;74;25239;-87
2023/11/10 06:14:00;;;;;;;2.23;1.97;;;3.30;99.90;;;;;;1892487;73;25217;-89
2023/11/10 06:16:49;;;;;;;2.70;2.00;;;3.30;99.90;;;;;;1910335;73;25216;-89
2023/11/10 06:19:37;;;;;;;3.07;2.00;;;3.30;99.90;;;;;;1924782;73;25158;-89
2023/11/10 06:22:34;;;;;;;2.03;1.80;;;3.30;99.90;;;;;;1913202;74;25283;-87
2023/11/10 06:25:24;;;;;;;1.63;1.53;;;3.30;99.90;;;;;;1907506;73;25259;-87
2023/11/10 06:28:12;;;;;;;3.90;1.40;;;3.30;99.90;;;;;;1913827;73;25766;-88
2023/11/10 06:31:03;;;;;;;2.93;1.50;;;3.20;99.90;;;;;;1897970;74;25285;-89
2023/11/10 06:33:53;;;;;;;1.73;1.60;;;3.20;99.90;;;;;;1919639;73;25235;-89
2023/11/10 06:36:43;;;;;;;3.30;1.50;;;3.20;99.90;;;;;;1912905;73;25347;-87
2023/11/10 06:39:33;;;;;;;1.60;1.50;;;3.40;99.90;;;;;;1909968;73;25732;-89
2023/11/10 06:45:10;;;;;;;1.40;1.30;;;3.40;99.90;;;;;;1953366;72;26851;-86
2023/11/10 06:48:03;;;;;;;1.50;1.40;;;3.30;99.90;;;;;;1920400;73;25231;-88
2023/11/10 06:50:52;;;;;;;1.43;1.33;;;3.30;99.90;;;;;;1929326;73;25993;-88
2023/11/10 06:53:46;;;;;;;1.10;1.10;;;3.30;99.90;;;;;;1926385;73;25652;-88
2023/11/10 06:59:38;;;;;;;0.90;0.90;;;3.40;99.90;;;;;;1945944;72;26860;-89
2023/11/10 07:02:27;;;;;;;1.17;1.10;;;3.30;99.90;;;;;;1937105;73;25190;-89
2023/11/10 07:05:17;;;;;;;1.47;1.37;;;3.40;99.90;;;;;;1927697;73;25204;-89
2023/11/10 07:08:09;;;;;;;2.03;1.30;;;3.40;99.90;;;;;;1894911;73;25247;-89
2023/11/10 07:11:01;;;;;;;1.40;1.30;;;3.30;99.90;;;;;;1938106;73;25765;-89
2023/11/10 07:13:50;;;;;;;3.00;1.13;;;3.30;99.90;;;;;;1918295;73;25361;-89
2023/11/10 07:16:40;;;;;;;1.00;1.00;;;3.30;99.90;;;;;;1946032;73;25262;-89
2023/11/10 07:19:32;;;;;;;0.80;0.80;;;3.30;99.90;;;;;;1940504;73;25236;-89
2023/11/10 07:22:38;;;;;;;0.80;0.80;;;3.30;99.90;;;;;;1924952;72;25176;-89
2023/11/10 07:25:28;;;;;;;0.80;0.80;;;3.30;99.90;;;;;;1892404;73;25269;-89
2023/11/10 07:28:17;;;;;;;0.87;0.87;;;3.30;99.90;;;;;;1918505;73;25153;-89
2023/11/10 07:31:11;;;;;;;0.83;0.83;;;3.40;99.90;;;;;;1886607;75;25213;-89
2023/11/10 07:34:03;;;;;;;0.97;0.80;;;3.40;99.90;;;;;;1893634;74;25316;-88
2023/11/10 07:36:53;;;;;;;3.10;0.90;;;3.40;99.90;;;;;;1891772;75;25184;-88
2023/11/10 07:39:46;;;;;;;0.60;0.60;;;3.50;99.90;;;;;;1873506;76;25234;-88
2023/11/10 07:42:37;;;;;;;0.60;0.60;;;3.40;99.90;;;;;;1871283;75;25297;-88
2023/11/10 07:52:06;;;;;;;0.90;0.90;;;3.40;99.90;;;;;;1941900;73;25224;-89
2023/11/10 07:54:56;;;;;;;0.70;0.70;;;3.40;99.90;;;;;;1931324;73;25721;-88
2023/11/10 07:57:47;;;;;;;0.70;0.70;;;3.40;99.90;;;;;;1937411;73;25221;-89
2023/11/10 08:00:37;;;;;;;0.50;0.50;;;3.30;99.90;;;;;;1931747;73;25334;-87
2023/11/10 08:03:27;;;;;;;0.57;0.57;;;3.30;99.90;;;;;;1890676;73;25222;-87
2023/11/10 08:12:02;;;;;;;0.63;0.63;;;3.20;99.90;;;;;;1944574;72;27057;-88
2023/11/10 08:14:55;;;;;;;0.60;0.60;;;3.30;99.90;;;;;;1918529;73;25292;-89
2023/11/10 08:17:48;;;;;;;0.70;0.70;;;3.40;99.90;;;;;;1924841;73;25195;-87
2023/11/10 08:20:39;;;;;;;0.80;0.80;;;3.50;99.90;;;;;;1925485;73;25235;-87
2023/11/10 08:23:30;;;;;;;1.03;0.80;;;3.50;99.90;;;;;;1922714;73;25251;-90
2023/11/10 08:26:20;;;;;;;0.70;0.70;;;3.40;99.90;;;;;;1922712;73;25231;-87
2023/11/10 08:29:10;;;;;;;0.80;0.80;;;3.40;99.90;;;;;;1917833;73;25574;-88
2023/11/10 08:32:00;;;;;;;0.70;0.70;;;3.60;99.90;;;;;;1921328;73;25648;-89
2023/11/10 08:35:04;;;;;;;1.00;1.00;;;3.60;99.90;;;;;;1937313;73;25218;-89
2023/11/10 08:37:58;;;;;;;0.70;0.70;;;3.60;99.90;;;;;;1934601;73;25619;-88
2023/11/10 08:40:48;;;;;;;0.80;0.80;;;3.60;99.90;;;;;;1917883;73;25254;-88
2023/11/10 08:43:38;;;;;;;0.57;0.57;;;3.70;99.90;;;;;;1915214;73;25328;-87
2023/11/10 08:46:28;;;;;;;0.67;0.67;;;3.60;99.90;;;;;;1902335;74;25222;-86
2023/11/10 08:49:17;;;;;;;0.57;0.57;;;3.50;99.90;;;;;;1897834;75;25252;-87
2023/11/10 08:52:07;;;;;;;0.60;0.60;;;3.50;99.90;;;;;;1902738;74;25179;-89
2023/11/10 08:58:09;;;;;;;0.60;0.60;;;3.50;99.90;;;;;;1984187;71;27063;-86
2023/11/10 09:00:59;;;;;;;0.60;0.60;;;3.60;99.90;;;;;;1947100;73;25730;-88
2023/11/10 09:03:48;;;;;;;0.60;0.60;;;3.50;99.90;;;;;;2007995;70;25777;-88
2023/11/10 09:06:38;;;;;;;0.63;0.63;;;3.60;99.90;;;;;;2007413;70;25256;-87
2023/11/10 09:09:30;;;;;;;0.73;0.60;;;3.50;99.90;;;;;;2026315;70;25279;-88
2023/11/10 09:12:22;;;;;;;0.87;0.73;;;3.60;99.90;;;;;;2015174;70;25243;-88
2023/11/10 09:15:13;;;;;;;0.80;0.80;;;3.70;99.90;;;;;;2022676;70;25261;-88
2023/11/10 09:20:47;;;;;;;2.73;0.70;;;3.70;99.90;;;;;;1952779;72;27025;-86
2023/11/10 09:23:38;;;;;;;0.70;0.70;;;3.70;99.90;;;;;;1895725;75;25693;-89
2023/11/10 09:26:30;;;;;;;2.37;0.90;;;3.80;99.90;;;;;;1894009;75;25262;-88
2023/11/10 09:32:10;;;;;;;0.60;0.60;;;3.90;99.90;;;;;;1940904;72;26499;-86
2023/11/10 09:35:03;;;;;;;0.60;0.60;;;4.00;99.90;;;;;;1929563;73;25864;-87
2023/11/10 09:37:56;;;;;;;0.60;0.60;;;3.90;99.90;;;;;;1920666;73;25281;-89
2023/11/10 09:40:49;;;;;;;0.60;0.60;;;3.90;99.90;;;;;;1928973;73;25309;-89
2023/11/10 09:43:40;;;;;;;3.90;0.90;;;4.00;99.90;;;;;;1912395;73;25700;-88
2023/11/10 09:46:35;;;;;;;0.70;0.70;;;4.00;99.90;;;;;;1882504;73;25182;-89
2023/11/10 09:49:27;;;;;;;0.70;0.70;;;4.20;99.90;;;;;;1862997;75;25298;-88
2023/11/10 09:52:18;;;;;;;0.80;0.80;;;4.20;99.90;;;;;;1886390;73;25302;-89
2023/11/10 09:58:24;;;;;;;0.70;0.70;;;4.10;99.90;;;;;;1971697;71;27053;-88
2023/11/10 10:01:13;;;;;;;0.80;0.80;;;3.80;99.90;;;;;;1980239;72;25244;-88
2023/11/10 10:04:03;;;;;;;0.60;0.60;;;3.80;99.90;;;;;;1983352;70;25696;-88
2023/11/10 10:06:58;;;;;;;0.80;0.80;;;3.80;99.90;;;;;;1981820;72;25135;-89
2023/11/10 10:09:49;;;;;;;0.70;0.70;;;3.90;99.90;;;;;;1957354;72;25222;-88
2023/11/10 10:12:43;;;;;;;0.90;0.90;;;3.90;99.90;;;;;;1973746;70;25242;-89
2023/11/10 10:15:33;;;;;;;0.80;0.80;;;4.10;99.90;;;;;;1984694;72;25901;-88
2023/11/10 10:21:16;;;;;;;2.97;0.87;;;4.30;99.90;;;;;;1938736;72;27063;-85
2023/11/10 10:24:12;;;;;;;0.80;0.80;;;4.10;99.90;;;;;;1878400;76;25252;-89
2023/11/10 10:27:02;;;;;;;2.20;0.90;;;4.10;99.90;;;;;;1775469;78;25775;-86
2023/11/10 10:29:54;;;;;;;1.00;0.90;;;4.20;99.90;;;;;;1899786;73;25246;-89
2023/11/10 10:33:05;;;;;;;1.00;1.00;;;4.10;99.90;;;;;;1864637;76;25320;-88
2023/11/10 10:35:55;;;;;;;1.00;1.00;;;4.20;99.90;;;;;;1816928;78;25249;-88
2023/11/10 10:38:47;;;;;;;2.90;0.93;;;4.30;99.90;;;;;;1882586;75;25686;-89
2023/11/10 10:41:38;;;;;;;1.37;1.27;;;4.30;99.90;;;;;;1915152;75;25275;-88
2023/11/10 10:47:27;;;;;;;1.00;1.00;;;4.50;99.90;;;;;;1905706;74;28862;-86
2023/11/10 10:50:18;;;;;;;0.87;0.87;;;4.70;99.90;;;;;;1887111;76;25158;-89
2023/11/10 10:53:10;;;;;;;1.10;1.10;;;4.40;99.90;;;;;;1883536;75;25349;-88
2023/11/10 10:56:01;;;;;;;1.33;1.13;;;4.40;99.90;;;;;;1871733;76;25295;-88
2023/11/10 11:01:40;;;;;;;1.17;1.17;;;4.30;99.90;;;;;;1930634;74;27112;-87
2023/11/10 11:04:40;;;;;;;0.90;0.90;;;4.30;99.90;;;;;;1906312;74;25332;-88
2023/11/10 11:07:59;;;;;;;1.17;1.17;;;4.30;99.90;;;;;;1900713;75;25176;-88
2023/11/10 11:11:16;;;;;;;1.03;1.03;;;4.30;99.90;;;;;;1906583;75;25290;-88
2023/11/10 11:17:35;;;;;;;2.60;0.80;;;4.50;99.90;;;;;;1924425;72;27012;-87
2023/11/10 11:20:30;;;;;;;1.20;1.10;;;4.50;99.90;;;;;;1902971;74;25254;-88
2023/11/10 11:23:23;;;;;;;1.53;1.20;;;4.50;99.90;;;;;;1877584;76;25632;-88
2023/11/10 11:26:17;;;;;;;1.13;1.13;;;4.60;99.90;;;;;;1850233;77;25241;-89
2023/11/10 11:32:01;;;;;;;1.40;1.30;;;4.40;99.90;;;;;;1942453;72;28098;-87
2023/11/10 11:37:58;;;;;;;2.00;1.63;;;4.60;99.90;;;;;;1929541;74;29297;-87
2023/11/10 11:40:53;;;;;;;1.60;1.50;;;4.70;99.90;;;;;;1915996;75;25184;-89
2023/11/10 11:46:45;;;;;;;2.10;1.90;;;4.50;99.90;;;;;;1943890;72;27032;-89
2023/11/10 11:49:39;;;;;;;2.33;2.07;;;4.50;99.90;;;;;;1925784;73;25178;-89
2023/11/10 11:52:34;;;;;;;2.37;1.80;;;4.50;99.90;;;;;;1917999;73;25665;-89
2023/11/10 11:55:26;;;;;;;1.33;1.23;;;4.60;99.90;;;;;;1936968;73;25812;-89
2023/11/10 12:01:17;;;;;;;1.10;1.07;;;4.90;99.90;;;;;;1947085;72;26916;-87
2023/11/10 12:07:42;;;;;;;0.70;0.70;;;4.80;99.90;;;;;;1904881;74;27687;-87
2023/11/10 12:10:32;;;;;;;1.57;0.87;;;4.60;99.90;;;;;;1912265;75;25179;-89
2023/11/10 12:13:26;;;;;;;1.00;1.00;;;4.80;99.90;;;;;;1907044;73;25257;-88
2023/11/10 12:19:22;;;;;;;1.23;1.13;;;4.80;99.90;;;;;;1934533;72;26980;-86
2023/11/10 12:22:15;;;;;;;0.90;0.90;;;4.80;99.90;;;;;;1909562;73;25731;-89
2023/11/10 12:25:06;;;;;;;2.00;1.07;;;4.60;99.90;;;;;;1893750;74;25216;-87
2023/11/10 12:28:00;;;;;;;1.57;1.20;;;4.40;99.90;;;;;;1903697;74;25257;-86
2023/11/10 12:45:02;;;;;;;1.03;1.00;;;4.40;99.90;;;;;;1895955;75;27585;-87
2023/11/10 12:50:55;;;;;;;1.10;1.10;;;4.50;99.90;;;;;;1945842;71;27514;-87
2023/11/10 12:54:02;;;;;;;1.00;1.00;;;4.50;99.90;;;;;;1942973;73;25189;-87
2023/11/10 12:56:56;;;;;;;1.57;1.00;;;4.50;99.90;;;;;;1935446;73;25134;-89
2023/11/10 12:59:47;;;;;;;0.90;0.90;;;4.50;99.90;;;;;;1947601;73;25260;-87
2023/11/10 13:02:45;;;;;;;2.63;1.20;;;4.60;99.90;;;;;;1915673;73;25343;-87
2023/11/10 13:09:31;;;;;;;1.20;1.00;;;5.00;99.90;;;;;;1901526;75;25283;-89
2023/11/10 13:12:21;;;;;;;1.63;1.20;;;4.80;99.90;;;;;;1864957;76;25346;-88
2023/11/10 13:15:15;;;;;;;1.30;1.20;;;4.80;99.90;;;;;;1869140;76;25257;-89
2023/11/10 13:18:08;;;;;;;1.27;1.17;;;4.90;99.90;;;;;;1905082;75;25165;-89
2023/11/10 13:21:00;;;;;;;1.13;1.13;;;5.00;99.90;;;;;;1878194;76;25562;-88
2023/11/10 13:23:55;;;;;;;2.67;1.30;;;5.20;99.90;;;;;;1865367;76;25164;-87
2023/11/10 13:29:34;;;;;;;1.87;1.50;;;5.10;99.90;;;;;;1949193;72;27465;-87
2023/11/10 13:32:37;;;;;;;4.53;1.27;;;5.10;99.90;;;;;;1940173;73;25231;-86
2023/11/10 13:35:29;;;;;;;2.40;1.40;;;5.00;99.90;;;;;;1910950;75;25311;-86
2023/11/10 13:38:18;;;;;;;2.23;1.20;;;5.10;99.90;;;;;;1916830;75;25179;-87
2023/11/10 13:41:08;;;;;;;3.40;1.10;;;5.20;99.90;;;;;;1906288;75;25270;-87
2023/11/10 13:43:58;;;;;;;0.90;0.90;;;4.90;99.90;;;;;;1946465;72;25199;-87
2023/11/10 13:46:47;;;;;;;1.60;0.90;;;4.60;99.90;;;;;;1950289;72;25246;-87
2023/11/10 13:52:22;;;;;;;1.10;1.10;;;4.50;99.90;;;;;;1941705;72;27075;-86
2023/11/10 13:55:12;;;;;;;2.07;1.10;;;4.40;99.90;;;;;;1890806;75;25241;-88
2023/11/10 13:58:03;;;;;;;1.40;1.07;;;4.50;99.90;;;;;;1911057;74;25306;-89
2023/11/10 14:03:37;;;;;;;1.10;1.10;;;4.50;99.90;;;;;;1957276;71;27274;-88
2023/11/10 14:09:23;;;;;;;1.23;1.13;;;4.70;99.90;;;;;;1960204;72;26969;-89
2023/11/10 14:15:15;;;;;;;1.90;1.03;;;4.70;99.90;;;;;;1944138;72;26930;-86
2023/11/10 14:18:02;;;;;;;5.63;1.80;;;4.50;99.90;;;;;;1921269;73;25238;-86
2023/11/10 14:20:51;;;;;;;2.60;1.50;;;4.40;99.90;;;;;;1928692;73;25329;-88
2023/11/10 14:23:42;;;;;;;2.83;1.73;;;4.30;99.90;;;;;;1903383;75;25283;-87
2023/11/10 14:26:36;;;;;;;4.37;2.30;;;4.30;99.90;;;;;;1853187;77;25245;-88
2023/11/10 14:29:25;;;;;;;2.50;1.80;;;4.20;99.90;;;;;;1910488;75;25699;-87
2023/11/10 14:32:15;;;;;;;2.90;2.30;;;4.10;99.90;;;;;;1855506;75;25259;-87
2023/11/10 14:35:16;;;;;;;5.70;2.30;;;4.10;99.90;;;;;;1843011;77;25297;-87
2023/11/10 14:38:08;;;;;;;5.03;2.63;;;4.20;99.90;;;;;;1900544;75;25269;-88
2023/11/10 14:40:56;;;;;;;5.97;2.90;;;4.20;99.90;;;;;;1848040;76;25662;-88
2023/11/10 14:43:46;;;;;;;4.13;2.90;;;4.20;99.90;;;;;;1876115;75;25325;-88
2023/11/10 14:49:32;;;;;;;2.30;2.10;;;4.40;99.90;;;;;;1965456;72;27047;-86
2023/11/10 14:54:58;;;;;;;4.83;2.50;;;4.50;99.90;;;;;;1930099;72;27074;-86
2023/11/10 14:57:47;;;;;;;16.90;3.40;;;4.40;99.90;;;;;;1937781;72;25136;-88
2023/11/10 15:00:39;;;;;;;8.23;2.80;;;4.50;99.90;;;;;;1864409;75;25224;-88
2023/11/10 15:03:28;;;;;;;4.83;2.67;;;4.40;99.90;;;;;;1845723;78;25797;-87
2023/11/10 15:06:19;;;;;;;4.03;2.53;;;4.50;99.90;;;;;;1861398;75;25201;-89
2023/11/10 15:09:09;;;;;;;8.47;2.50;;;4.40;99.90;;;;;;1940803;72;25738;-89
2023/11/10 15:11:58;;;;;;;3.00;1.80;;;4.20;99.90;;;;;;1895343;75;25544;-87
2023/11/10 15:14:49;;;;;;;2.43;1.47;;;4.20;99.90;;;;;;1861376;75;25857;-86
2023/11/10 15:18:08;;;;;;;2.60;1.87;;;4.20;99.90;;;;;;1919167;73;25668;-87
2023/11/10 15:21:16;;;;;;;2.63;1.40;;;4.20;99.90;;;;;;1941615;73;25205;-88
2023/11/10 15:31:19;;;;;;;2.87;1.50;;;4.10;99.90;;;;;;1846181;77;25324;-88
2023/11/10 15:36:52;;;;;;;2.47;1.70;;;4.00;99.90;;;;;;2005876;71;27028;-86
2023/11/10 15:39:40;;;;;;;2.77;1.70;;;4.00;99.90;;;;;;1916107;73;25180;-86
2023/11/10 15:42:29;;;;;;;2.50;1.50;;;4.00;99.90;;;;;;1935162;72;25236;-86
2023/11/10 15:45:17;;;;;;;2.33;1.63;;;4.10;99.90;;;;;;1916034;73;25264;-86
2023/11/10 15:48:06;;;;;;;2.10;1.90;;;4.10;99.90;;;;;;1924232;73;25283;-86
2023/11/10 15:50:55;;;;;;;3.37;1.80;;;4.20;99.90;;;;;;1914387;73;25245;-86
2023/11/10 15:53:43;;;;;;;1.93;1.77;;;4.20;99.90;;;;;;1920616;73;26120;-87
2023/11/10 15:56:32;;;;;;;3.60;2.10;;;4.20;99.90;;;;;;1905815;73;25262;-87
2023/11/10 15:59:22;;;;;;;2.67;1.70;;;4.20;99.90;;;;;;1897941;73;25894;-87
2023/11/10 16:05:25;;;;;;;2.50;2.03;;;4.20;99.90;;;;;;1973574;71;26848;-88
2023/11/10 16:08:14;;;;;;;2.00;1.70;;;4.20;99.90;;;;;;1930773;73;25302;-88
2023/11/10 16:11:03;;;;;;;5.67;3.83;;;4.30;99.90;;;;;;2002198;70;25179;-87
2023/11/10 16:13:52;;;;;;;3.40;2.50;;;4.30;99.90;;;;;;2005718;70;25696;-86
2023/11/10 16:19:24;;;;;;;3.80;2.60;;;4.20;99.90;;;;;;1932705;72;28293;-86
2023/11/10 16:24:52;;;;;;;8.07;2.60;;;4.10;99.90;;;;;;1940036;72;27991;-86
2023/11/10 16:27:41;;;;;;;5.10;2.33;;;4.10;99.90;;;;;;1897336;75;25754;-86
2023/11/10 16:30:31;;;;;;;4.97;3.10;;;4.10;99.90;;;;;;1900309;75;25233;-86
2023/11/10 16:33:20;;;;;;;5.73;3.17;;;4.20;99.90;;;;;;1888817;75;25806;-88
2023/11/10 16:38:48;;;;;;;4.07;2.63;;;4.30;99.90;;;;;;1931241;72;27142;-88
2023/11/10 16:41:40;;;;;;;3.93;2.40;;;4.30;99.90;;;;;;1867690;75;25724;-88
2023/11/10 16:44:26;;;;;;;6.90;5.20;;;4.20;99.90;;;;;;1865369;76;25224;-88
2023/11/10 16:47:15;;;;;;;7.03;3.83;;;4.30;99.90;;;;;;1858682;76;25267;-88
2023/11/10 16:50:04;;;;;;;5.20;3.40;;;4.40;99.90;;;;;;1862418;76;25281;-88
2023/11/10 16:55:36;;;;;;;58.13;31.17;;;4.70;99.90;;;;;;1952472;72;27835;-87
2023/11/10 17:01:05;;;;;;;10.30;5.60;;;4.50;99.90;;;;;;1942524;72;27041;-86
2023/11/10 17:03:53;;;;;;;9.47;4.43;;;4.30;99.90;;;;;;1896303;75;25252;-86
2023/11/10 17:06:41;;;;;;;7.43;4.37;;;4.20;99.90;;;;;;1899155;75;25268;-86
2023/11/10 17:09:30;;;;;;;8.47;4.73;;;4.20;99.90;;;;;;1888629;75;25610;-86
2023/11/10 17:12:19;;;;;;;8.50;4.00;;;4.20;99.90;;;;;;1890171;75;25589;-86
2023/11/10 17:15:09;;;;;;;4.53;3.40;;;4.20;99.90;;;;;;1894441;75;25266;-86
2023/11/10 17:17:58;;;;;;;4.70;3.17;;;4.20;99.90;;;;;;1899297;75;25353;-87
2023/11/10 17:20:46;;;;;;;4.47;3.20;;;4.20;99.90;;;;;;1901559;75;25241;-87
2023/11/10 17:26:18;;;;;;;5.43;3.73;;;4.20;99.90;;;;;;1921637;72;27209;-88
2023/11/10 17:29:08;;;;;;;5.10;3.47;;;4.10;99.90;;;;;;1885678;75;25826;-88
2023/11/10 17:31:57;;;;;;;4.30;2.97;;;4.10;99.90;;;;;;1870329;75;25255;-88
2023/11/10 17:34:48;;;;;;;10.77;4.67;;;4.20;99.90;;;;;;1882928;75;25290;-88
2023/11/10 17:40:16;;;;;;;14.20;8.73;;;4.20;99.90;;;;;;1926936;72;27167;-86
2023/11/10 17:43:06;;;;;;;9.03;5.10;;;4.20;99.90;;;;;;1853586;76;25273;-89
2023/11/10 17:45:54;;;;;;;12.90;4.73;;;4.20;99.90;;;;;;1835397;77;26726;-86
2023/11/10 17:48:42;;;;;;;8.60;5.17;;;4.30;99.90;;;;;;1888931;75;26674;-86
2023/11/10 17:51:31;;;;;;;6.80;4.10;;;4.30;99.90;;;;;;1916452;73;25239;-86
2023/11/10 17:54:20;;;;;;;7.83;4.90;;;4.30;99.90;;;;;;1912580;73;25319;-87
2023/11/10 17:57:08;;;;;;;16.23;7.23;;;4.30;99.90;;;;;;1903614;73;25603;-87
2023/11/10 17:59:57;;;;;;;45.80;21.60;;;4.30;99.90;;;;;;1888974;75;25194;-87
2023/11/10 18:02:45;;;;;;;18.90;9.63;;;4.30;99.90;;;;;;1889586;73;25260;-87
2023/11/10 18:05:34;;;;;;;8.20;4.73;;;4.30;99.90;;;;;;1890060;73;25247;-87
2023/11/10 18:08:22;;;;;;;7.27;4.77;;;4.40;99.90;;;;;;1904824;73;26405;-87
2023/11/10 18:11:11;;;;;;;8.33;4.63;;;4.20;99.90;;;;;;1888767;73;26141;-87
2023/11/10 18:16:39;;;;;;;8.40;4.80;;;4.10;99.90;;;;;;1950614;72;27088;-88
2023/11/10 18:19:28;;;;;;;7.57;4.47;;;4.10;99.90;;;;;;1884128;75;25239;-88
2023/11/10 18:22:17;;;;;;;14.07;6.30;;;4.10;99.90;;;;;;1895378;75;25684;-88
2023/11/10 18:25:07;;;;;;;9.20;4.03;;;4.10;99.90;;;;;;1902716;75;25242;-88